createdAt,value
2024-03-13T00:01:52.160Z,100231.80
2024-03-13T00:06:55.919Z,100235.60
2024-03-13T00:11:57.431Z,100237.80
2024-03-13T00:16:59.006Z,100232.00
2024-03-13T00:22:05.606Z,100226.00
2024-03-13T00:27:07.290Z,100230.40
2024-03-13T00:32:08.888Z,100233.80
2024-03-13T00:37:11.145Z,100232.20
2024-03-13T00:42:13.126Z,100225.40
2024-03-13T00:47:20.249Z,100224.20
2024-03-13T00:52:22.956Z,100215.40
2024-03-13T00:57:25.132Z,100209.80
2024-03-13T01:02:27.326Z,100210.60
2024-03-13T01:07:28.953Z,100213.00
2024-03-13T01:12:30.589Z,100212.00
2024-03-13T01:17:32.958Z,100213.20
2024-03-13T01:22:34.867Z,100211.00
2024-03-13T01:27:36.987Z,100204.40
2024-03-13T01:32:38.870Z,100201.80
2024-03-13T01:37:59.244Z,100200.40
2024-03-13T01:43:19.614Z,100200.60
2024-03-13T01:48:39.994Z,100199.60
2024-03-13T01:54:00.794Z,100203.00
2024-03-13T01:59:20.649Z,100199.20
2024-03-13T02:04:22.259Z,100202.60
2024-03-13T02:09:25.108Z,100197.60
2024-03-13T02:14:28.869Z,100200.40
2024-03-13T02:19:32.315Z,100206.60
2024-03-13T02:24:34.445Z,100204.80
2024-03-13T02:29:37.150Z,100202.40
2024-03-13T02:34:44.257Z,100206.20
2024-03-13T02:39:45.993Z,100210.80
2024-03-13T02:44:47.520Z,100210.40
2024-03-13T02:49:48.996Z,100214.80
2024-03-13T02:54:52.486Z,100218.80
2024-03-13T02:59:54.070Z,100220.60
2024-03-13T03:04:57.361Z,100223.40
2024-03-13T03:10:00.471Z,100225.40
2024-03-13T03:15:02.193Z,100226.80
2024-03-13T03:20:06.889Z,100225.60
2024-03-13T03:25:10.296Z,100221.60
2024-03-13T03:30:12.602Z,100220.40
2024-03-13T03:35:14.161Z,100219.80
2024-03-13T03:40:18.828Z,100222.80
2024-03-13T03:45:20.370Z,100224.80
2024-03-13T03:50:21.961Z,100223.60
2024-03-13T03:55:23.593Z,100226.80
2024-03-13T04:00:25.198Z,100231.80
2024-03-13T04:05:28.619Z,100231.20
2024-03-13T04:10:30.272Z,100236.40
2024-03-13T04:15:31.892Z,100237.40
2024-03-13T04:20:34.132Z,100242.60
2024-03-13T04:25:39.585Z,100244.20
2024-03-13T04:30:41.296Z,100246.60
2024-03-13T04:35:45.815Z,100250.60
2024-03-13T04:40:47.351Z,100249.40
2024-03-13T04:45:48.959Z,100249.60
2024-03-13T04:50:50.475Z,100257.20
2024-03-13T04:55:52.112Z,100256.40
2024-03-13T05:00:53.681Z,100262.60
2024-03-13T05:05:55.564Z,100261.60
2024-03-13T05:10:57.239Z,100263.80
2024-03-13T05:15:58.846Z,100263.20
2024-03-13T05:21:01.355Z,100261.60
2024-03-13T05:26:03.139Z,100271.40
2024-03-13T05:31:04.737Z,100266.20
2024-03-13T05:36:08.574Z,100275.40
2024-03-13T05:41:10.198Z,100283.60
2024-03-13T05:46:12.545Z,100281.20
2024-03-13T05:51:14.116Z,100282.20
2024-03-13T05:56:15.773Z,100281.00
2024-03-13T06:01:23.347Z,100280.60
2024-03-13T06:06:28.196Z,100281.80
2024-03-13T06:11:29.776Z,100279.40
2024-03-13T06:16:31.590Z,100279.40
2024-03-13T06:21:33.162Z,100281.40
2024-03-13T06:26:41.192Z,100288.00
2024-03-13T06:31:44.098Z,100285.40
2024-03-13T06:36:45.632Z,100290.60
2024-03-13T06:41:48.384Z,100293.40
2024-03-13T06:46:51.680Z,100301.80
2024-03-13T06:51:53.280Z,100299.00
2024-03-13T06:56:55.087Z,100304.60
2024-03-13T07:01:56.783Z,100306.80
2024-03-13T07:06:58.556Z,100314.00
2024-03-13T07:12:00.224Z,100320.00
2024-03-13T07:17:01.794Z,100325.20
2024-03-13T07:22:04.084Z,100329.00
2024-03-13T07:27:05.663Z,100328.80
2024-03-13T07:32:07.369Z,100333.40
2024-03-13T07:37:10.770Z,100336.40
2024-03-13T07:42:12.374Z,100331.60
2024-03-13T07:47:14.117Z,100336.00
2024-03-13T07:52:16.414Z,100335.00
2024-03-13T07:57:18.522Z,100333.00
2024-03-13T08:02:20.188Z,100337.80
2024-03-13T09:06:16.021Z,100376.80
2024-03-13T09:11:18.466Z,100378.00
2024-03-13T09:16:20.591Z,100382.20
2024-03-13T09:21:22.168Z,100389.20
2024-03-13T09:26:23.815Z,100395.60
2024-03-13T09:31:25.451Z,100396.80
2024-03-13T09:36:27.453Z,100402.00
2024-03-13T09:41:29.483Z,100402.60
2024-03-13T09:46:33.520Z,100404.20
2024-03-13T09:51:37.064Z,100412.80
2024-03-13T09:56:41.484Z,100414.40
2024-03-13T10:01:49.857Z,100416.00
2024-03-13T10:06:59.549Z,100413.00
2024-03-13T10:12:05.787Z,100415.40
2024-03-13T10:17:13.537Z,100422.60
2024-03-13T10:22:15.252Z,100421.40
2024-03-13T10:27:17.392Z,100422.80
2024-03-13T10:32:19.794Z,100423.00
2024-03-13T10:37:23.215Z,100426.60
2024-03-13T10:42:24.832Z,100425.80
2024-03-13T10:47:28.484Z,100426.20
2024-03-13T10:52:30.085Z,100429.20
2024-03-13T10:57:32.051Z,100429.80
2024-03-13T11:02:34.750Z,100424.60
2024-03-13T11:07:36.274Z,100428.80
2024-03-13T11:12:45.956Z,100417.80
2024-03-13T11:17:57.406Z,100419.40
2024-03-13T11:23:11.624Z,100420.80
2024-03-13T11:28:32.538Z,100422.20
2024-03-13T11:33:35.821Z,100422.40
2024-03-13T11:38:39.431Z,100422.00
2024-03-13T11:43:41.821Z,100420.40
2024-03-13T11:48:43.560Z,100421.80
2024-03-13T11:53:45.830Z,100413.60
2024-03-13T11:58:48.293Z,100409.40
2024-03-13T12:03:54.455Z,100402.80
2024-03-13T12:08:56.998Z,100400.80
2024-03-13T12:14:00.265Z,100402.00
2024-03-13T12:19:03.016Z,100402.40
2024-03-13T12:24:05.084Z,100401.60
2024-03-13T12:29:06.806Z,100405.60
2024-03-13T12:34:10.743Z,100401.40
2024-03-13T12:39:12.966Z,100409.20
2024-03-13T12:44:16.039Z,100406.20
2024-03-13T12:49:17.746Z,100404.20
2024-03-13T12:54:19.420Z,100405.60
2024-03-13T12:59:23.910Z,100400.40
2024-03-13T13:04:25.745Z,100408.40
2024-03-13T13:09:27.585Z,100409.40
2024-03-13T13:14:30.689Z,100411.40
2024-03-13T13:20:07.286Z,100405.80
2024-03-13T13:25:09.292Z,100410.40
2024-03-13T13:30:13.914Z,100404.40
2024-03-13T13:35:21.277Z,100399.20
2024-03-13T13:40:24.241Z,100399.00
2024-03-13T13:45:28.088Z,100404.60
2024-03-13T13:50:29.792Z,100407.40
2024-03-13T13:55:31.734Z,100407.80
2024-03-13T14:00:33.460Z,100402.80
2024-03-13T14:05:35.803Z,100401.80
2024-03-13T14:11:05.850Z,100401.80
2024-03-13T14:16:10.058Z,100404.60
2024-03-13T14:21:17.378Z,100409.60
2024-03-13T14:26:29.403Z,100409.80
2024-03-13T14:32:36.972Z,100406.00
2024-03-13T14:37:15.642Z,100403.60
2024-03-13T14:42:28.305Z,100407.60
2024-03-13T14:47:42.046Z,100405.40
2024-03-13T14:52:54.505Z,100400.00
2024-03-13T14:58:05.020Z,100404.00
2024-03-13T15:03:07.380Z,100404.20
2024-03-13T15:08:14.761Z,100405.80
2024-03-13T15:13:16.528Z,100401.60
2024-03-13T15:18:18.458Z,100410.20
2024-03-13T15:23:20.223Z,100414.60
2024-03-13T15:28:21.895Z,100410.60
2024-03-13T15:33:23.608Z,100406.20
2024-03-13T15:38:25.262Z,100412.00
2024-03-13T15:43:26.820Z,100420.60
2024-03-13T15:48:28.486Z,100423.40
2024-03-13T15:53:30.879Z,100417.60
2024-03-13T15:58:33.098Z,100416.60
2024-03-13T16:03:34.775Z,100422.40
2024-03-13T16:08:50.543Z,100417.00
2024-03-13T16:13:54.052Z,100421.20
2024-03-13T16:18:56.751Z,100420.80
2024-03-13T16:23:58.960Z,100423.20
2024-03-13T16:29:00.818Z,100423.40
2024-03-13T16:34:03.380Z,100421.20
2024-03-13T16:39:07.809Z,100426.60
2024-03-13T16:44:09.630Z,100434.00
2024-03-13T16:49:12.562Z,100438.40
2024-03-13T16:54:14.297Z,100440.00
2024-03-13T16:59:16.032Z,100446.40
2024-03-13T17:04:17.685Z,100446.60
2024-03-13T17:09:19.451Z,100450.60
2024-03-13T17:14:23.316Z,100453.80
2024-03-13T17:19:26.441Z,100455.60
2024-03-13T17:24:28.290Z,100456.60
2024-03-13T17:29:33.318Z,100458.60
2024-03-13T17:34:35.479Z,100460.20
2024-03-13T17:39:38.085Z,100457.40
2024-03-13T17:44:41.094Z,100464.00
2024-03-13T17:49:45.075Z,100455.00
2024-03-13T17:54:46.864Z,100458.60
2024-03-13T17:59:48.815Z,100464.60
2024-03-13T18:04:50.590Z,100465.20
2024-03-13T18:09:52.103Z,100463.20
2024-03-13T18:14:54.938Z,100461.40
2024-03-13T18:19:56.668Z,100453.00
2024-03-13T18:24:58.484Z,100465.00
2024-03-13T18:30:04.953Z,100462.60
2024-03-13T18:35:10.281Z,100465.80
2024-03-13T18:40:16.015Z,100470.80
2024-03-13T18:45:17.520Z,100472.80
2024-03-13T18:50:19.201Z,100469.60
2024-03-13T18:55:23.476Z,100469.80
2024-03-13T19:00:27.415Z,100473.00
2024-03-13T19:05:29.173Z,100469.20
2024-03-13T19:10:31.581Z,100474.80
2024-03-13T19:15:35.177Z,100469.00
2024-03-13T19:20:38.643Z,100481.80
2024-03-13T19:25:40.159Z,100486.20
2024-03-13T19:30:42.572Z,100492.80
2024-03-13T19:35:45.791Z,100495.60
2024-03-13T19:40:47.339Z,100497.00
2024-03-13T19:45:49.112Z,100497.60
2024-03-13T19:50:50.689Z,100505.40
2024-03-13T19:55:52.261Z,100506.80
2024-03-13T20:00:54.143Z,100508.80
2024-03-13T20:05:56.439Z,100511.20
2024-03-13T20:11:00.763Z,100516.80
2024-03-13T20:16:02.989Z,100525.40
2024-03-13T20:21:04.941Z,100522.00
2024-03-13T20:26:06.551Z,100514.40
2024-03-13T20:31:08.060Z,100509.40
2024-03-13T20:36:10.605Z,100512.40
2024-03-13T20:41:12.320Z,100513.20
2024-03-13T20:46:14.058Z,100522.00
2024-03-13T20:51:15.866Z,100519.80
2024-03-13T20:56:17.478Z,100517.60
2024-03-13T21:01:20.300Z,100519.20
2024-03-13T21:06:21.895Z,100515.60
2024-03-13T21:11:23.661Z,100513.00
2024-03-13T21:16:25.455Z,100509.80
2024-03-13T21:21:27.072Z,100506.40
2024-03-13T21:26:28.799Z,100509.40
2024-03-13T21:31:31.013Z,100504.60
2024-03-13T21:36:33.560Z,100503.20
2024-03-13T21:41:37.385Z,100506.40
2024-03-13T21:46:38.913Z,100511.60
2024-03-13T21:51:40.946Z,100511.40
2024-03-13T21:56:42.771Z,100517.80
2024-03-13T22:01:44.652Z,100518.40
2024-03-13T22:06:46.151Z,100520.40
2024-03-13T22:11:47.794Z,100515.60
2024-03-13T22:16:50.922Z,100518.20
2024-03-13T22:21:53.119Z,100515.80
2024-03-13T22:26:54.682Z,100510.20
2024-03-13T22:31:56.230Z,100516.80
2024-03-13T22:36:58.896Z,100511.00
2024-03-13T22:42:00.522Z,100516.00
2024-03-13T22:47:05.891Z,100512.80
2024-03-13T22:52:07.477Z,100508.20
2024-03-13T22:57:09.030Z,100506.80
2024-03-13T23:02:10.634Z,100502.60
2024-03-13T23:07:14.179Z,100498.00
2024-03-13T23:12:15.796Z,100492.20
2024-03-13T23:17:17.351Z,100495.60
2024-03-13T23:22:19.451Z,100493.80
2024-03-13T23:27:21.422Z,100495.80
2024-03-13T23:32:23.876Z,100489.80
2024-03-13T23:37:25.862Z,100487.40
2024-03-13T23:42:41.850Z,100483.80
2024-03-13T23:47:45.491Z,100482.60
2024-03-13T23:52:47.115Z,100481.40
2024-03-13T23:57:49.805Z,100485.60
